Terminal Aerodrome Forecast
Issued by NWS

Home | Current Version | Previous Version | Text Only | Print | Product List | Glossary On
Versions: 1 2 3 4 5 6 7 8 9 10 11 12 13 14 15 16
000
FTUS41 KRNK 101128
TAFLWB
TAF
KLWB 101128Z 1012/1112 31004KT P6SM -SHSN OVC020
     FM101500 28005KT P6SM BKN025
     FM101700 28006KT P6SM FEW040
     FM110300 00000KT P6SM BKN080=

USA.gov is the U.S. government's official web portal to all federal, state and local government web resources and services.